sensor_id;sensor_type;location;lat;lon;timestamp;temperature;humidity
480;DHT22;226;48.606;9.096;2023-04-03T00:00:50;4.60;26.50
480;DHT22;226;48.606;9.096;2023-04-03T00:03:19;4.50;26.90
480;DHT22;226;48.606;9.096;2023-04-03T00:05:48;4.60;27.90
480;DHT22;226;48.606;9.096;2023-04-03T00:08:16;4.60;27.30
480;DHT22;226;48.606;9.096;2023-04-03T00:10:44;4.70;26.80
480;DHT22;226;48.606;9.096;2023-04-03T00:13:12;4.70;26.30
480;DHT22;226;48.606;9.096;2023-04-03T00:15:41;4.70;25.50
480;DHT22;226;48.606;9.096;2023-04-03T00:18:10;4.60;25.90
480;DHT22;226;48.606;9.096;2023-04-03T00:20:39;4.60;26.30
480;DHT22;226;48.606;9.096;2023-04-03T00:23:07;4.60;25.90
480;DHT22;226;48.606;9.096;2023-04-03T00:25:36;4.60;26.00
480;DHT22;226;48.606;9.096;2023-04-03T00:28:04;4.60;25.80
480;DHT22;226;48.606;9.096;2023-04-03T00:30:32;4.50;25.80
480;DHT22;226;48.606;9.096;2023-04-03T00:33:01;4.20;25.60
480;DHT22;226;48.606;9.096;2023-04-03T00:35:30;4.60;26.40
480;DHT22;226;48.606;9.096;2023-04-03T00:37:59;4.50;26.40
480;DHT22;226;48.606;9.096;2023-04-03T00:40:27;4.50;26.10
480;DHT22;226;48.606;9.096;2023-04-03T00:42:57;4.50;25.90
480;DHT22;226;48.606;9.096;2023-04-03T00:45:37;4.50;25.80
480;DHT22;226;48.606;9.096;2023-04-03T00:48:07;4.50;26.00
480;DHT22;226;48.606;9.096;2023-04-03T00:50:39;4.30;25.50
480;DHT22;226;48.606;9.096;2023-04-03T00:53:13;4.40;25.70
480;DHT22;226;48.606;9.096;2023-04-03T00:55:43;4.40;25.50
480;DHT22;226;48.606;9.096;2023-04-03T00:58:12;4.50;25.40
480;DHT22;226;48.606;9.096;2023-04-03T01:00:43;4.40;26.20
480;DHT22;226;48.606;9.096;2023-04-03T01:03:14;4.40;25.70
480;DHT22;226;48.606;9.096;2023-04-03T01:05:42;4.60;25.80
480;DHT22;226;48.606;9.096;2023-04-03T01:08:11;4.40;25.80
480;DHT22;226;48.606;9.096;2023-04-03T01:10:40;4.40;25.80
480;DHT22;226;48.606;9.096;2023-04-03T01:13:23;4.60;26.00
480;DHT22;226;48.606;9.096;2023-04-03T01:15:52;4.40;25.80
480;DHT22;226;48.606;9.096;2023-04-03T01:18:21;4.30;26.20
480;DHT22;226;48.606;9.096;2023-04-03T01:21:17;4.40;25.40
480;DHT22;226;48.606;9.096;2023-04-03T01:24:05;4.40;24.70
480;DHT22;226;48.606;9.096;2023-04-03T01:26:38;4.40;25.70
480;DHT22;226;48.606;9.096;2023-04-03T01:29:06;4.40;25.70
480;DHT22;226;48.606;9.096;2023-04-03T01:31:49;4.30;25.60
480;DHT22;226;48.606;9.096;2023-04-03T01:34:18;4.20;25.60
480;DHT22;226;48.606;9.096;2023-04-03T01:36:46;4.20;25.60
480;DHT22;226;48.606;9.096;2023-04-03T01:39:14;4.10;25.50
480;DHT22;226;48.606;9.096;2023-04-03T01:41:43;4.10;26.20
480;DHT22;226;48.606;9.096;2023-04-03T01:44:12;4.00;25.40
480;DHT22;226;48.606;9.096;2023-04-03T01:46:40;4.00;25.40
480;DHT22;226;48.606;9.096;2023-04-03T01:49:10;4.00;25.10
480;DHT22;226;48.606;9.096;2023-04-03T01:51:38;4.00;26.30
480;DHT22;226;48.606;9.096;2023-04-03T01:54:06;3.90;27.90
480;DHT22;226;48.606;9.096;2023-04-03T01:56:34;4.00;30.30
480;DHT22;226;48.606;9.096;2023-04-03T01:59:02;4.00;26.00
480;DHT22;226;48.606;9.096;2023-04-03T02:01:30;4.00;26.20
480;DHT22;226;48.606;9.096;2023-04-03T02:03:59;4.00;25.60
480;DHT22;226;48.606;9.096;2023-04-03T02:06:28;4.00;25.70
480;DHT22;226;48.606;9.096;2023-04-03T02:08:56;4.10;25.50
480;DHT22;226;48.606;9.096;2023-04-03T02:11:24;4.10;25.00
480;DHT22;226;48.606;9.096;2023-04-03T02:13:52;4.10;25.50
480;DHT22;226;48.606;9.096;2023-04-03T02:16:20;4.10;26.10
480;DHT22;226;48.606;9.096;2023-04-03T02:18:49;4.10;25.90
480;DHT22;226;48.606;9.096;2023-04-03T02:21:17;4.20;25.60
480;DHT22;226;48.606;9.096;2023-04-03T02:23:47;4.20;25.60
480;DHT22;226;48.606;9.096;2023-04-03T02:26:16;4.20;25.60
480;DHT22;226;48.606;9.096;2023-04-03T02:28:44;4.20;25.60
480;DHT22;226;48.606;9.096;2023-04-03T02:31:13;4.20;25.10
480;DHT22;226;48.606;9.096;2023-04-03T02:33:41;4.20;25.30
480;DHT22;226;48.606;9.096;2023-04-03T02:36:09;4.20;25.50
480;DHT22;226;48.606;9.096;2023-04-03T02:38:37;4.20;24.40
480;DHT22;226;48.606;9.096;2023-04-03T02:41:08;4.20;25.00
480;DHT22;226;48.606;9.096;2023-04-03T02:43:37;4.10;24.60
480;DHT22;226;48.606;9.096;2023-04-03T02:46:05;4.00;25.80
480;DHT22;226;48.606;9.096;2023-04-03T02:48:34;4.00;25.00
480;DHT22;226;48.606;9.096;2023-04-03T02:51:02;4.00;25.40
480;DHT22;226;48.606;9.096;2023-04-03T02:53:30;4.00;25.30
480;DHT22;226;48.606;9.096;2023-04-03T02:55:58;3.90;25.20
480;DHT22;226;48.606;9.096;2023-04-03T02:58:28;4.00;25.30
480;DHT22;226;48.606;9.096;2023-04-03T03:00:56;3.90;24.80
480;DHT22;226;48.606;9.096;2023-04-03T03:03:24;3.90;25.40
480;DHT22;226;48.606;9.096;2023-04-03T03:06:01;3.90;24.30
480;DHT22;226;48.606;9.096;2023-04-03T03:08:29;4.00;25.40
480;DHT22;226;48.606;9.096;2023-04-03T03:10:57;3.90;25.40
480;DHT22;226;48.606;9.096;2023-04-03T03:13:25;4.00;24.80
480;DHT22;226;48.606;9.096;2023-04-03T03:15:55;4.00;24.70
480;DHT22;226;48.606;9.096;2023-04-03T03:18:24;4.00;23.70
480;DHT22;226;48.606;9.096;2023-04-03T03:20:52;4.00;23.60
480;DHT22;226;48.606;9.096;2023-04-03T03:23:21;3.90;24.00
480;DHT22;226;48.606;9.096;2023-04-03T03:25:54;4.00;23.60
480;DHT22;226;48.606;9.096;2023-04-03T03:28:23;4.00;23.50
480;DHT22;226;48.606;9.096;2023-04-03T03:30:51;4.00;23.30
480;DHT22;226;48.606;9.096;2023-04-03T03:33:20;4.00;23.70
480;DHT22;226;48.606;9.096;2023-04-03T03:35:49;4.00;23.80
480;DHT22;226;48.606;9.096;2023-04-03T03:38:17;4.00;23.60
480;DHT22;226;48.606;9.096;2023-04-03T03:40:46;4.00;24.00
480;DHT22;226;48.606;9.096;2023-04-03T03:43:15;4.00;23.70
480;DHT22;226;48.606;9.096;2023-04-03T03:45:43;4.00;24.00
480;DHT22;226;48.606;9.096;2023-04-03T03:48:12;4.00;23.30
480;DHT22;226;48.606;9.096;2023-04-03T03:50:41;4.10;23.40
480;DHT22;226;48.606;9.096;2023-04-03T03:53:09;4.10;23.10
480;DHT22;226;48.606;9.096;2023-04-03T03:55:37;4.00;22.70
480;DHT22;226;48.606;9.096;2023-04-03T03:58:05;4.00;23.00
480;DHT22;226;48.606;9.096;2023-04-03T04:00:34;4.00;23.40
480;DHT22;226;48.606;9.096;2023-04-03T04:03:03;4.00;24.00
480;DHT22;226;48.606;9.096;2023-04-03T04:05:31;4.00;23.20
480;DHT22;226;48.606;9.096;2023-04-03T04:08:01;4.00;23.90
480;DHT22;226;48.606;9.096;2023-04-03T04:10:29;4.00;23.10
480;DHT22;226;48.606;9.096;2023-04-03T04:12:57;4.00;22.90
480;DHT22;226;48.606;9.096;2023-04-03T04:15:25;4.00;23.30
480;DHT22;226;48.606;9.096;2023-04-03T04:17:53;3.90;23.20
480;DHT22;226;48.606;9.096;2023-04-03T04:20:22;3.90;23.00
480;DHT22;226;48.606;9.096;2023-04-03T04:22:50;3.90;22.90
480;DHT22;226;48.606;9.096;2023-04-03T04:25:19;4.00;22.90
480;DHT22;226;48.606;9.096;2023-04-03T04:27:48;4.00;23.10
480;DHT22;226;48.606;9.096;2023-04-03T04:30:16;4.00;23.70
480;DHT22;226;48.606;9.096;2023-04-03T04:32:44;4.00;22.80
480;DHT22;226;48.606;9.096;2023-04-03T04:35:12;4.00;22.50
480;DHT22;226;48.606;9.096;2023-04-03T04:37:42;4.00;23.20
480;DHT22;226;48.606;9.096;2023-04-03T04:40:11;4.00;23.40
480;DHT22;226;48.606;9.096;2023-04-03T04:42:41;4.00;22.50
480;DHT22;226;48.606;9.096;2023-04-03T04:45:09;4.00;22.60
480;DHT22;226;48.606;9.096;2023-04-03T04:47:37;4.00;22.50
480;DHT22;226;48.606;9.096;2023-04-03T04:50:06;4.00;23.30
480;DHT22;226;48.606;9.096;2023-04-03T04:52:34;4.00;23.00
480;DHT22;226;48.606;9.096;2023-04-03T04:55:03;4.10;22.70
480;DHT22;226;48.606;9.096;2023-04-03T04:57:32;4.00;21.90
480;DHT22;226;48.606;9.096;2023-04-03T05:00:02;4.40;21.60
480;DHT22;226;48.606;9.096;2023-04-03T05:02:30;4.00;21.80
480;DHT22;226;48.606;9.096;2023-04-03T05:04:58;4.00;21.70
480;DHT22;226;48.606;9.096;2023-04-03T05:07:30;4.00;22.20
480;DHT22;226;48.606;9.096;2023-04-03T05:09:58;4.10;21.30
480;DHT22;226;48.606;9.096;2023-04-03T05:12:26;4.10;20.60
480;DHT22;226;48.606;9.096;2023-04-03T05:14:55;4.10;21.30
480;DHT22;226;48.606;9.096;2023-04-03T05:17:24;4.10;20.20
480;DHT22;226;48.606;9.096;2023-04-03T05:19:52;4.10;20.60
480;DHT22;226;48.606;9.096;2023-04-03T05:22:20;4.10;19.10
480;DHT22;226;48.606;9.096;2023-04-03T05:24:48;4.10;19.80
480;DHT22;226;48.606;9.096;2023-04-03T05:27:16;4.10;19.60
480;DHT22;226;48.606;9.096;2023-04-03T05:29:44;4.10;20.20
480;DHT22;226;48.606;9.096;2023-04-03T05:32:13;4.10;19.20
480;DHT22;226;48.606;9.096;2023-04-03T05:34:42;4.20;18.90
480;DHT22;226;48.606;9.096;2023-04-03T05:37:10;4.20;18.90
480;DHT22;226;48.606;9.096;2023-04-03T05:39:38;4.20;18.10
480;DHT22;226;48.606;9.096;2023-04-03T05:42:07;4.30;18.70
480;DHT22;226;48.606;9.096;2023-04-03T05:44:36;4.30;15.40
480;DHT22;226;48.606;9.096;2023-04-03T05:47:04;4.20;16.70
480;DHT22;226;48.606;9.096;2023-04-03T05:49:32;4.10;16.10
480;DHT22;226;48.606;9.096;2023-04-03T05:52:02;4.20;15.90
480;DHT22;226;48.606;9.096;2023-04-03T05:54:30;4.20;16.90
480;DHT22;226;48.606;9.096;2023-04-03T05:56:59;4.30;16.90
480;DHT22;226;48.606;9.096;2023-04-03T05:59:27;4.40;15.20
480;DHT22;226;48.606;9.096;2023-04-03T06:01:55;4.40;15.50
480;DHT22;226;48.606;9.096;2023-04-03T06:04:23;4.50;14.80
480;DHT22;226;48.606;9.096;2023-04-03T06:06:53;4.40;14.40
480;DHT22;226;48.606;9.096;2023-04-03T06:09:27;4.50;15.10
480;DHT22;226;48.606;9.096;2023-04-03T06:11:56;4.50;14.00
480;DHT22;226;48.606;9.096;2023-04-03T06:14:26;4.50;14.30
480;DHT22;226;48.606;9.096;2023-04-03T06:16:54;4.60;13.70
480;DHT22;226;48.606;9.096;2023-04-03T06:19:23;4.60;14.40
480;DHT22;226;48.606;9.096;2023-04-03T06:21:51;4.60;14.90
480;DHT22;226;48.606;9.096;2023-04-03T06:24:19;4.70;14.40
480;DHT22;226;48.606;9.096;2023-04-03T06:26:50;4.70;14.30
480;DHT22;226;48.606;9.096;2023-04-03T06:29:19;4.50;14.20
480;DHT22;226;48.606;9.096;2023-04-03T06:31:48;4.50;15.60
480;DHT22;226;48.606;9.096;2023-04-03T06:34:17;4.40;14.80
480;DHT22;226;48.606;9.096;2023-04-03T06:36:45;4.40;15.00
480;DHT22;226;48.606;9.096;2023-04-03T06:39:15;4.40;15.40
480;DHT22;226;48.606;9.096;2023-04-03T06:41:43;4.30;15.10
480;DHT22;226;48.606;9.096;2023-04-03T06:44:13;4.40;15.50
480;DHT22;226;48.606;9.096;2023-04-03T06:46:44;4.50;16.70
480;DHT22;226;48.606;9.096;2023-04-03T06:49:13;4.50;16.30
480;DHT22;226;48.606;9.096;2023-04-03T06:51:41;4.60;16.20
480;DHT22;226;48.606;9.096;2023-04-03T06:54:09;4.60;15.60
480;DHT22;226;48.606;9.096;2023-04-03T06:56:38;4.70;15.60
480;DHT22;226;48.606;9.096;2023-04-03T06:59:06;4.70;14.80
480;DHT22;226;48.606;9.096;2023-04-03T07:01:36;4.70;15.20
480;DHT22;226;48.606;9.096;2023-04-03T07:04:04;4.70;14.80
480;DHT22;226;48.606;9.096;2023-04-03T07:06:33;4.80;15.00
480;DHT22;226;48.606;9.096;2023-04-03T07:09:02;4.80;15.20
480;DHT22;226;48.606;9.096;2023-04-03T07:11:30;4.80;16.20
480;DHT22;226;48.606;9.096;2023-04-03T07:13:58;4.90;14.70
480;DHT22;226;48.606;9.096;2023-04-03T07:16:26;4.90;14.80
480;DHT22;226;48.606;9.096;2023-04-03T07:18:56;4.90;15.30
480;DHT22;226;48.606;9.096;2023-04-03T07:21:25;5.00;15.50
480;DHT22;226;48.606;9.096;2023-04-03T07:23:53;5.10;14.60
480;DHT22;226;48.606;9.096;2023-04-03T07:26:21;5.00;15.30
480;DHT22;226;48.606;9.096;2023-04-03T07:28:50;5.10;15.80
480;DHT22;226;48.606;9.096;2023-04-03T07:31:18;5.30;14.30
480;DHT22;226;48.606;9.096;2023-04-03T07:33:46;5.20;15.10
480;DHT22;226;48.606;9.096;2023-04-03T07:36:18;5.10;14.50
480;DHT22;226;48.606;9.096;2023-04-03T07:38:47;5.20;15.30
480;DHT22;226;48.606;9.096;2023-04-03T07:41:18;5.30;14.20
480;DHT22;226;48.606;9.096;2023-04-03T07:43:47;5.20;14.60
480;DHT22;226;48.606;9.096;2023-04-03T07:46:16;5.30;14.10
480;DHT22;226;48.606;9.096;2023-04-03T07:48:45;5.40;14.20
480;DHT22;226;48.606;9.096;2023-04-03T07:51:13;5.40;14.20
480;DHT22;226;48.606;9.096;2023-04-03T07:53:44;5.50;13.80
480;DHT22;226;48.606;9.096;2023-04-03T07:56:12;5.50;14.20
480;DHT22;226;48.606;9.096;2023-04-03T07:58:40;5.60;14.30
480;DHT22;226;48.606;9.096;2023-04-03T08:01:09;5.70;13.80
480;DHT22;226;48.606;9.096;2023-04-03T08:03:38;5.80;13.80
480;DHT22;226;48.606;9.096;2023-04-03T08:06:08;5.80;13.70
480;DHT22;226;48.606;9.096;2023-04-03T08:08:41;5.70;13.30
480;DHT22;226;48.606;9.096;2023-04-03T08:11:11;5.60;14.30
480;DHT22;226;48.606;9.096;2023-04-03T08:13:39;5.70;14.30
480;DHT22;226;48.606;9.096;2023-04-03T08:16:10;5.60;14.30
480;DHT22;226;48.606;9.096;2023-04-03T08:18:38;5.70;13.90
480;DHT22;226;48.606;9.096;2023-04-03T08:21:07;5.80;13.80
480;DHT22;226;48.606;9.096;2023-04-03T08:23:36;5.80;13.40
480;DHT22;226;48.606;9.096;2023-04-03T08:26:08;5.50;13.60
480;DHT22;226;48.606;9.096;2023-04-03T08:28:38;5.70;14.90
480;DHT22;226;48.606;9.096;2023-04-03T08:31:09;5.80;13.80
480;DHT22;226;48.606;9.096;2023-04-03T08:33:39;5.90;13.60
480;DHT22;226;48.606;9.096;2023-04-03T08:36:17;5.90;13.60
480;DHT22;226;48.606;9.096;2023-04-03T08:38:45;6.00;14.00
480;DHT22;226;48.606;9.096;2023-04-03T08:41:18;6.10;12.80
480;DHT22;226;48.606;9.096;2023-04-03T08:44:09;6.20;12.80
480;DHT22;226;48.606;9.096;2023-04-03T08:46:52;6.30;13.40
480;DHT22;226;48.606;9.096;2023-04-03T08:49:27;6.50;14.30
480;DHT22;226;48.606;9.096;2023-04-03T08:51:56;6.80;13.60
480;DHT22;226;48.606;9.096;2023-04-03T08:54:29;6.70;13.10
480;DHT22;226;48.606;9.096;2023-04-03T08:57:03;6.90;12.00
480;DHT22;226;48.606;9.096;2023-04-03T08:59:36;6.90;12.50
480;DHT22;226;48.606;9.096;2023-04-03T09:02:25;6.80;11.70
480;DHT22;226;48.606;9.096;2023-04-03T09:04:55;6.70;12.00
480;DHT22;226;48.606;9.096;2023-04-03T09:07:33;6.70;12.30
480;DHT22;226;48.606;9.096;2023-04-03T09:10:04;6.60;12.10
480;DHT22;226;48.606;9.096;2023-04-03T09:12:38;6.70;13.00
480;DHT22;226;48.606;9.096;2023-04-03T09:15:16;6.90;12.00
480;DHT22;226;48.606;9.096;2023-04-03T09:18:02;6.80;12.40
480;DHT22;226;48.606;9.096;2023-04-03T09:20:39;6.70;11.50
480;DHT22;226;48.606;9.096;2023-04-03T09:23:27;6.70;10.00
480;DHT22;226;48.606;9.096;2023-04-03T09:26:01;6.80;9.90
480;DHT22;226;48.606;9.096;2023-04-03T09:28:34;6.80;10.00
480;DHT22;226;48.606;9.096;2023-04-03T09:31:20;6.70;10.00
480;DHT22;226;48.606;9.096;2023-04-03T09:33:50;6.80;10.90
480;DHT22;226;48.606;9.096;2023-04-03T09:36:40;7.00;10.20
480;DHT22;226;48.606;9.096;2023-04-03T09:39:12;6.90;10.40
480;DHT22;226;48.606;9.096;2023-04-03T09:41:41;6.80;10.10
480;DHT22;226;48.606;9.096;2023-04-03T09:44:22;6.90;10.90
480;DHT22;226;48.606;9.096;2023-04-03T09:46:52;7.00;10.50
480;DHT22;226;48.606;9.096;2023-04-03T09:49:20;6.90;10.60
480;DHT22;226;48.606;9.096;2023-04-03T09:51:49;6.80;10.10
480;DHT22;226;48.606;9.096;2023-04-03T09:54:40;6.70;10.00
480;DHT22;226;48.606;9.096;2023-04-03T09:57:11;6.70;10.30
480;DHT22;226;48.606;9.096;2023-04-03T09:59:44;6.60;9.90
480;DHT22;226;48.606;9.096;2023-04-03T10:02:31;6.70;10.40
480;DHT22;226;48.606;9.096;2023-04-03T10:05:00;6.80;10.10
480;DHT22;226;48.606;9.096;2023-04-03T10:07:33;6.70;8.90
480;DHT22;226;48.606;9.096;2023-04-03T10:10:17;6.80;8.50
480;DHT22;226;48.606;9.096;2023-04-03T10:12:47;6.80;6.50
480;DHT22;226;48.606;9.096;2023-04-03T10:15:16;6.90;6.20
480;DHT22;226;48.606;9.096;2023-04-03T10:17:56;7.00;4.70
480;DHT22;226;48.606;9.096;2023-04-03T10:20:33;7.00;4.30
480;DHT22;226;48.606;9.096;2023-04-03T10:23:15;7.00;5.40
480;DHT22;226;48.606;9.096;2023-04-03T10:25:53;7.00;5.70
480;DHT22;226;48.606;9.096;2023-04-03T10:28:28;7.00;5.10
480;DHT22;226;48.606;9.096;2023-04-03T10:31:02;7.00;4.60
480;DHT22;226;48.606;9.096;2023-04-03T10:33:42;7.10;5.30
480;DHT22;226;48.606;9.096;2023-04-03T10:36:19;7.30;4.00
480;DHT22;226;48.606;9.096;2023-04-03T10:38:58;7.40;3.60
480;DHT22;226;48.606;9.096;2023-04-03T10:41:34;7.30;4.30
480;DHT22;226;48.606;9.096;2023-04-03T10:44:15;7.40;2.60
480;DHT22;226;48.606;9.096;2023-04-03T10:46:48;7.50;3.50
480;DHT22;226;48.606;9.096;2023-04-03T10:49:25;7.60;3.30
480;DHT22;226;48.606;9.096;2023-04-03T10:52:02;7.60;4.30
480;DHT22;226;48.606;9.096;2023-04-03T10:54:37;7.70;1.60
480;DHT22;226;48.606;9.096;2023-04-03T10:57:08;7.70;3.20
480;DHT22;226;48.606;9.096;2023-04-03T10:59:43;8.20;3.20
480;DHT22;226;48.606;9.096;2023-04-03T11:02:17;7.80;3.20
480;DHT22;226;48.606;9.096;2023-04-03T11:04:51;7.80;1.70
480;DHT22;226;48.606;9.096;2023-04-03T11:07:21;7.90;3.00
480;DHT22;226;48.606;9.096;2023-04-03T11:09:53;7.90;2.70
480;DHT22;226;48.606;9.096;2023-04-03T11:12:26;8.00;3.00
480;DHT22;226;48.606;9.096;2023-04-03T11:14:56;8.10;2.20
480;DHT22;226;48.606;9.096;2023-04-03T11:17:30;8.00;4.00
480;DHT22;226;48.606;9.096;2023-04-03T11:20:08;7.90;3.40
480;DHT22;226;48.606;9.096;2023-04-03T11:22:41;7.60;3.10
480;DHT22;226;48.606;9.096;2023-04-03T11:25:17;7.40;4.10
480;DHT22;226;48.606;9.096;2023-04-03T11:27:54;7.40;4.90
480;DHT22;226;48.606;9.096;2023-04-03T11:30:27;7.40;4.20
480;DHT22;226;48.606;9.096;2023-04-03T11:35:50;7.30;4.30
480;DHT22;226;48.606;9.096;2023-04-03T11:38:24;7.20;5.30
480;DHT22;226;48.606;9.096;2023-04-03T11:40:54;7.40;4.90
480;DHT22;226;48.606;9.096;2023-04-03T11:43:26;7.60;5.60
480;DHT22;226;48.606;9.096;2023-04-03T11:45:57;7.80;5.60
480;DHT22;226;48.606;9.096;2023-04-03T11:48:47;7.60;4.30
480;DHT22;226;48.606;9.096;2023-04-03T11:51:41;7.60;4.50
480;DHT22;226;48.606;9.096;2023-04-03T11:54:35;7.80;5.40
480;DHT22;226;48.606;9.096;2023-04-03T11:58:02;7.90;4.30
480;DHT22;226;48.606;9.096;2023-04-03T12:00:47;7.70;4.10
480;DHT22;226;48.606;9.096;2023-04-03T12:07:08;7.50;4.70
480;DHT22;226;48.606;9.096;2023-04-03T12:10:00;7.80;4.50
480;DHT22;226;48.606;9.096;2023-04-03T12:12:35;8.30;7.50
480;DHT22;226;48.606;9.096;2023-04-03T12:18:39;7.90;6.60
480;DHT22;226;48.606;9.096;2023-04-03T12:21:08;8.10;6.60
480;DHT22;226;48.606;9.096;2023-04-03T12:24:01;8.40;7.70
480;DHT22;226;48.606;9.096;2023-04-03T12:26:34;8.50;5.80
480;DHT22;226;48.606;9.096;2023-04-03T12:29:17;8.10;5.50
480;DHT22;226;48.606;9.096;2023-04-03T12:31:58;8.00;5.80
480;DHT22;226;48.606;9.096;2023-04-03T12:34:48;7.90;6.00
480;DHT22;226;48.606;9.096;2023-04-03T12:37:41;7.80;4.40
480;DHT22;226;48.606;9.096;2023-04-03T12:40:24;7.50;5.10
480;DHT22;226;48.606;9.096;2023-04-03T12:43:05;7.50;4.00
480;DHT22;226;48.606;9.096;2023-04-03T12:45:42;7.30;5.70
480;DHT22;226;48.606;9.096;2023-04-03T12:48:17;7.20;3.30
480;DHT22;226;48.606;9.096;2023-04-03T12:50:46;7.30;2.70
480;DHT22;226;48.606;9.096;2023-04-03T12:53:18;7.50;2.30
480;DHT22;226;48.606;9.096;2023-04-03T12:55:52;7.70;3.00
480;DHT22;226;48.606;9.096;2023-04-03T12:58:23;8.00;3.20
480;DHT22;226;48.606;9.096;2023-04-03T13:01:00;8.20;4.70
480;DHT22;226;48.606;9.096;2023-04-03T13:03:29;8.30;3.50
480;DHT22;226;48.606;9.096;2023-04-03T13:06:00;8.50;2.70
480;DHT22;226;48.606;9.096;2023-04-03T13:08:30;8.40;1.00
480;DHT22;226;48.606;9.096;2023-04-03T13:11:04;8.40;1.00
480;DHT22;226;48.606;9.096;2023-04-03T13:13:33;8.40;1.00
480;DHT22;226;48.606;9.096;2023-04-03T13:16:08;8.30;1.00
480;DHT22;226;48.606;9.096;2023-04-03T13:18:37;8.00;1.00
480;DHT22;226;48.606;9.096;2023-04-03T13:21:08;7.90;1.00
480;DHT22;226;48.606;9.096;2023-04-03T13:23:42;7.60;1.00
480;DHT22;226;48.606;9.096;2023-04-03T13:26:15;7.70;1.00
480;DHT22;226;48.606;9.096;2023-04-03T13:28:45;7.70;1.00
480;DHT22;226;48.606;9.096;2023-04-03T13:31:20;7.70;1.00
480;DHT22;226;48.606;9.096;2023-04-03T13:33:56;7.70;1.00
480;DHT22;226;48.606;9.096;2023-04-03T13:36:28;7.80;1.00
480;DHT22;226;48.606;9.096;2023-04-03T13:39:03;7.90;1.00
480;DHT22;226;48.606;9.096;2023-04-03T13:41:34;7.90;1.00
480;DHT22;226;48.606;9.096;2023-04-03T13:44:27;8.00;1.20
480;DHT22;226;48.606;9.096;2023-04-03T13:46:57;8.10;1.00
480;DHT22;226;48.606;9.096;2023-04-03T13:49:31;8.20;1.00
480;DHT22;226;48.606;9.096;2023-04-03T13:52:00;8.30;1.00
480;DHT22;226;48.606;9.096;2023-04-03T13:54:36;8.20;1.00
480;DHT22;226;48.606;9.096;2023-04-03T13:57:13;8.10;1.00
480;DHT22;226;48.606;9.096;2023-04-03T13:59:43;7.90;1.00
480;DHT22;226;48.606;9.096;2023-04-03T14:02:18;7.70;1.00
480;DHT22;226;48.606;9.096;2023-04-03T14:04:53;7.70;1.00
480;DHT22;226;48.606;9.096;2023-04-03T14:07:23;7.60;1.00
480;DHT22;226;48.606;9.096;2023-04-03T14:09:51;7.50;1.40
480;DHT22;226;48.606;9.096;2023-04-03T14:12:25;7.50;1.50
480;DHT22;226;48.606;9.096;2023-04-03T14:14:59;7.50;2.20
480;DHT22;226;48.606;9.096;2023-04-03T14:17:28;7.70;1.30
480;DHT22;226;48.606;9.096;2023-04-03T14:19:58;7.80;1.70
480;DHT22;226;48.606;9.096;2023-04-03T14:22:29;8.00;1.00
480;DHT22;226;48.606;9.096;2023-04-03T14:24:57;8.10;1.00
480;DHT22;226;48.606;9.096;2023-04-03T14:27:29;8.10;1.00
480;DHT22;226;48.606;9.096;2023-04-03T14:29:59;8.30;1.00
480;DHT22;226;48.606;9.096;2023-04-03T14:32:27;8.30;1.00
480;DHT22;226;48.606;9.096;2023-04-03T14:34:55;8.30;1.00
480;DHT22;226;48.606;9.096;2023-04-03T14:37:27;8.20;1.00
480;DHT22;226;48.606;9.096;2023-04-03T14:39:57;8.20;1.00
480;DHT22;226;48.606;9.096;2023-04-03T14:42:29;8.30;1.00
480;DHT22;226;48.606;9.096;2023-04-03T14:44:58;8.30;1.00
480;DHT22;226;48.606;9.096;2023-04-03T14:47:28;8.50;1.00
480;DHT22;226;48.606;9.096;2023-04-03T14:49:59;8.60;1.00
480;DHT22;226;48.606;9.096;2023-04-03T14:52:29;8.70;1.00
480;DHT22;226;48.606;9.096;2023-04-03T14:54:59;8.70;1.00
480;DHT22;226;48.606;9.096;2023-04-03T14:57:29;8.60;1.00
480;DHT22;226;48.606;9.096;2023-04-03T14:59:58;8.50;1.00
480;DHT22;226;48.606;9.096;2023-04-03T15:02:29;8.40;1.00
480;DHT22;226;48.606;9.096;2023-04-03T15:04:59;8.30;1.00
480;DHT22;226;48.606;9.096;2023-04-03T15:07:29;8.10;1.00
480;DHT22;226;48.606;9.096;2023-04-03T15:09:57;8.00;1.00
480;DHT22;226;48.606;9.096;2023-04-03T15:12:26;7.90;1.00
480;DHT22;226;48.606;9.096;2023-04-03T15:14:55;7.90;1.40
480;DHT22;226;48.606;9.096;2023-04-03T15:17:29;7.80;2.20
480;DHT22;226;48.606;9.096;2023-04-03T15:19:58;8.00;1.00
480;DHT22;226;48.606;9.096;2023-04-03T15:22:26;8.10;1.00
480;DHT22;226;48.606;9.096;2023-04-03T15:24:55;8.30;1.00
480;DHT22;226;48.606;9.096;2023-04-03T15:27:23;8.60;1.00
480;DHT22;226;48.606;9.096;2023-04-03T15:29:51;8.80;1.00
480;DHT22;226;48.606;9.096;2023-04-03T15:32:20;8.60;1.00
480;DHT22;226;48.606;9.096;2023-04-03T15:34:48;8.30;1.00
480;DHT22;226;48.606;9.096;2023-04-03T15:37:20;8.10;1.00
480;DHT22;226;48.606;9.096;2023-04-03T15:39:48;8.00;1.10
480;DHT22;226;48.606;9.096;2023-04-03T15:42:17;8.00;1.90
480;DHT22;226;48.606;9.096;2023-04-03T15:44:45;7.90;1.00
480;DHT22;226;48.606;9.096;2023-04-03T15:47:13;7.70;1.70
480;DHT22;226;48.606;9.096;2023-04-03T15:49:43;7.60;2.30
480;DHT22;226;48.606;9.096;2023-04-03T15:52:11;7.60;2.90
480;DHT22;226;48.606;9.096;2023-04-03T15:54:39;7.60;1.90
480;DHT22;226;48.606;9.096;2023-04-03T15:57:07;7.60;2.70
480;DHT22;226;48.606;9.096;2023-04-03T15:59:35;7.60;2.90
480;DHT22;226;48.606;9.096;2023-04-03T16:02:06;7.50;1.00
480;DHT22;226;48.606;9.096;2023-04-03T16:04:35;7.40;1.00
480;DHT22;226;48.606;9.096;2023-04-03T16:07:04;7.30;1.00
480;DHT22;226;48.606;9.096;2023-04-03T16:09:33;7.40;1.00
480;DHT22;226;48.606;9.096;2023-04-03T16:12:02;7.50;1.00
480;DHT22;226;48.606;9.096;2023-04-03T16:14:30;7.50;1.00
480;DHT22;226;48.606;9.096;2023-04-03T16:16:59;7.60;1.00
480;DHT22;226;48.606;9.096;2023-04-03T16:19:28;7.50;1.00
480;DHT22;226;48.606;9.096;2023-04-03T16:21:57;7.40;1.00
480;DHT22;226;48.606;9.096;2023-04-03T16:24:27;7.50;1.00
480;DHT22;226;48.606;9.096;2023-04-03T16:26:55;7.50;1.00
480;DHT22;226;48.606;9.096;2023-04-03T16:29:23;7.60;1.00
480;DHT22;226;48.606;9.096;2023-04-03T16:31:51;7.60;1.00
480;DHT22;226;48.606;9.096;2023-04-03T16:34:20;7.70;1.00
480;DHT22;226;48.606;9.096;2023-04-03T16:36:48;7.80;1.00
480;DHT22;226;48.606;9.096;2023-04-03T16:39:19;7.60;1.00
480;DHT22;226;48.606;9.096;2023-04-03T16:41:48;7.50;1.00
480;DHT22;226;48.606;9.096;2023-04-03T16:44:16;7.40;1.00
480;DHT22;226;48.606;9.096;2023-04-03T16:46:44;7.40;1.00
480;DHT22;226;48.606;9.096;2023-04-03T16:49:14;7.30;1.00
480;DHT22;226;48.606;9.096;2023-04-03T16:51:42;7.10;1.00
480;DHT22;226;48.606;9.096;2023-04-03T16:54:10;7.00;1.00
480;DHT22;226;48.606;9.096;2023-04-03T16:56:40;6.90;1.00
480;DHT22;226;48.606;9.096;2023-04-03T16:59:09;6.80;1.00
480;DHT22;226;48.606;9.096;2023-04-03T17:01:37;6.80;1.00
480;DHT22;226;48.606;9.096;2023-04-03T17:04:05;6.90;1.00
480;DHT22;226;48.606;9.096;2023-04-03T17:06:34;6.90;1.00
480;DHT22;226;48.606;9.096;2023-04-03T17:09:02;7.00;1.00
480;DHT22;226;48.606;9.096;2023-04-03T17:11:31;6.90;1.00
480;DHT22;226;48.606;9.096;2023-04-03T17:14:04;6.90;1.00
480;DHT22;226;48.606;9.096;2023-04-03T17:16:35;7.00;1.00
480;DHT22;226;48.606;9.096;2023-04-03T17:19:04;6.90;1.00
480;DHT22;226;48.606;9.096;2023-04-03T17:21:33;6.80;1.00
480;DHT22;226;48.606;9.096;2023-04-03T17:24:04;6.80;1.00
480;DHT22;226;48.606;9.096;2023-04-03T17:26:35;6.80;1.00
480;DHT22;226;48.606;9.096;2023-04-03T17:29:04;6.80;1.00
480;DHT22;226;48.606;9.096;2023-04-03T17:31:33;6.80;1.00
480;DHT22;226;48.606;9.096;2023-04-03T17:34:02;6.70;1.00
480;DHT22;226;48.606;9.096;2023-04-03T17:36:31;6.70;1.00